sensor_id;sensor_type;location;lat;lon;timestamp;pressure;altitude;pressure_sealevel;temperature;humidity
56038;BME280;41907;47.848;9.000;2023-06-10T00:01:35;95305.72;;;17.85;63.78
56038;BME280;41907;47.848;9.000;2023-06-10T00:04:01;95302.66;;;17.83;64.04
56038;BME280;41907;47.848;9.000;2023-06-10T00:06:27;95300.59;;;17.76;64.00
56038;BME280;41907;47.848;9.000;2023-06-10T00:08:53;95297.59;;;17.81;64.54
56038;BME280;41907;47.848;9.000;2023-06-10T00:11:20;95301.97;;;17.90;64.32
56038;BME280;41907;47.848;9.000;2023-06-10T00:13:45;95306.75;;;17.73;64.54
56038;BME280;41907;47.848;9.000;2023-06-10T00:16:10;95310.31;;;17.81;65.10
56038;BME280;41907;47.848;9.000;2023-06-10T00:18:35;95310.97;;;17.74;64.84
56038;BME280;41907;47.848;9.000;2023-06-10T00:21:03;95305.13;;;17.69;65.05
56038;BME280;41907;47.848;9.000;2023-06-10T00:23:30;95301.38;;;17.77;64.77
56038;BME280;41907;47.848;9.000;2023-06-10T00:26:03;95303.56;;;17.68;65.09
56038;BME280;41907;47.848;9.000;2023-06-10T00:28:28;95301.88;;;17.60;65.97
56038;BME280;41907;47.848;9.000;2023-06-10T00:30:53;95305.44;;;17.64;65.90
56038;BME280;41907;47.848;9.000;2023-06-10T00:33:18;95305.06;;;17.65;65.59
56038;BME280;41907;47.848;9.000;2023-06-10T00:35:44;95304.22;;;17.61;66.43
56038;BME280;41907;47.848;9.000;2023-06-10T00:38:09;95303.09;;;17.62;66.14
56038;BME280;41907;47.848;9.000;2023-06-10T00:40:40;95300.03;;;17.64;67.13
56038;BME280;41907;47.848;9.000;2023-06-10T00:43:06;95302.19;;;17.55;66.62
56038;BME280;41907;47.848;9.000;2023-06-10T00:45:31;95302.81;;;17.44;67.49
56038;BME280;41907;47.848;9.000;2023-06-10T00:47:57;95301.78;;;17.53;67.59
56038;BME280;41907;47.848;9.000;2023-06-10T00:50:22;95295.63;;;17.56;67.95
56038;BME280;41907;47.848;9.000;2023-06-10T00:52:47;95291.16;;;17.40;68.28
56038;BME280;41907;47.848;9.000;2023-06-10T00:55:13;95292.91;;;17.29;68.82
56038;BME280;41907;47.848;9.000;2023-06-10T00:57:39;95286.16;;;17.16;69.24
56038;BME280;41907;47.848;9.000;2023-06-10T01:00:05;95286.88;;;17.13;70.14
56038;BME280;41907;47.848;9.000;2023-06-10T01:02:33;95283.28;;;17.05;70.16
56038;BME280;41907;47.848;9.000;2023-06-10T01:04:59;95290.63;;;17.08;70.39
56038;BME280;41907;47.848;9.000;2023-06-10T01:10:43;95287.91;;;17.05;70.43
56038;BME280;41907;47.848;9.000;2023-06-10T01:12:44;95285.63;;;17.07;70.66
56038;BME280;41907;47.848;9.000;2023-06-10T01:15:13;95277.25;;;17.12;70.94
56038;BME280;41907;47.848;9.000;2023-06-10T01:17:55;95282.28;;;17.14;70.83
56038;BME280;41907;47.848;9.000;2023-06-10T01:20:22;95285.25;;;17.08;71.53
56038;BME280;41907;47.848;9.000;2023-06-10T01:22:49;95285.22;;;17.05;72.20
56038;BME280;41907;47.848;9.000;2023-06-10T01:25:15;95282.00;;;16.99;72.23
56038;BME280;41907;47.848;9.000;2023-06-10T01:27:40;95284.44;;;17.04;72.83
56038;BME280;41907;47.848;9.000;2023-06-10T01:30:08;95280.75;;;16.93;73.12
56038;BME280;41907;47.848;9.000;2023-06-10T01:32:43;95288.19;;;17.00;73.22
56038;BME280;41907;47.848;9.000;2023-06-10T01:35:09;95280.84;;;16.97;73.28
56038;BME280;41907;47.848;9.000;2023-06-10T01:37:35;95288.69;;;17.05;73.97
56038;BME280;41907;47.848;9.000;2023-06-10T01:40:02;95283.94;;;16.99;73.84
56038;BME280;41907;47.848;9.000;2023-06-10T01:42:31;95284.31;;;16.97;74.46
56038;BME280;41907;47.848;9.000;2023-06-10T01:44:56;95288.91;;;16.97;74.08
56038;BME280;41907;47.848;9.000;2023-06-10T01:47:22;95297.59;;;16.87;74.31
56038;BME280;41907;47.848;9.000;2023-06-10T01:49:47;95299.53;;;16.90;74.67
56038;BME280;41907;47.848;9.000;2023-06-10T01:52:13;95292.19;;;16.87;74.78
56038;BME280;41907;47.848;9.000;2023-06-10T01:54:38;95297.09;;;16.81;75.09
56038;BME280;41907;47.848;9.000;2023-06-10T01:57:03;95302.84;;;16.80;75.35
56038;BME280;41907;47.848;9.000;2023-06-10T01:59:28;95299.72;;;16.78;76.29
56038;BME280;41907;47.848;9.000;2023-06-10T02:01:54;95297.53;;;16.64;76.98
56038;BME280;41907;47.848;9.000;2023-06-10T02:04:19;95298.59;;;16.59;77.01
56038;BME280;41907;47.848;9.000;2023-06-10T02:06:44;95297.47;;;16.60;77.60
56038;BME280;41907;47.848;9.000;2023-06-10T02:09:10;95303.72;;;16.64;76.82
56038;BME280;41907;47.848;9.000;2023-06-10T02:11:35;95297.47;;;16.60;77.51
56038;BME280;41907;47.848;9.000;2023-06-10T02:14:00;95307.50;;;16.44;77.00
56038;BME280;41907;47.848;9.000;2023-06-10T02:16:26;95308.72;;;16.47;77.61
56038;BME280;41907;47.848;9.000;2023-06-10T02:18:51;95311.84;;;16.49;77.99
56038;BME280;41907;47.848;9.000;2023-06-10T02:21:16;95299.00;;;16.42;78.70
56038;BME280;41907;47.848;9.000;2023-06-10T02:23:42;95309.38;;;16.40;78.40
56038;BME280;41907;47.848;9.000;2023-06-10T02:26:07;95316.22;;;16.37;79.48
56038;BME280;41907;47.848;9.000;2023-06-10T02:28:32;95313.75;;;16.29;79.59
56038;BME280;41907;47.848;9.000;2023-06-10T02:30:57;95318.72;;;16.27;80.48
56038;BME280;41907;47.848;9.000;2023-06-10T02:33:23;95315.44;;;16.18;81.10
56038;BME280;41907;47.848;9.000;2023-06-10T02:35:49;95323.25;;;16.23;81.47
56038;BME280;41907;47.848;9.000;2023-06-10T02:38:14;95319.69;;;16.19;82.14
56038;BME280;41907;47.848;9.000;2023-06-10T02:40:39;95327.88;;;16.07;82.79
56038;BME280;41907;47.848;9.000;2023-06-10T02:43:05;95319.75;;;16.03;82.91
56038;BME280;41907;47.848;9.000;2023-06-10T02:45:30;95324.34;;;16.03;83.01
56038;BME280;41907;47.848;9.000;2023-06-10T02:47:55;95318.75;;;15.92;84.05
56038;BME280;41907;47.848;9.000;2023-06-10T02:50:20;95321.78;;;15.90;84.71
56038;BME280;41907;47.848;9.000;2023-06-10T02:52:46;95328.56;;;15.84;85.09
56038;BME280;41907;47.848;9.000;2023-06-10T02:55:12;95331.16;;;15.81;85.58
56038;BME280;41907;47.848;9.000;2023-06-10T02:57:37;95325.44;;;15.82;85.77
56038;BME280;41907;47.848;9.000;2023-06-10T03:00:02;95328.19;;;15.86;85.85
56038;BME280;41907;47.848;9.000;2023-06-10T03:02:29;95334.00;;;15.88;85.90
56038;BME280;41907;47.848;9.000;2023-06-10T03:04:56;95337.81;;;15.87;85.49
56038;BME280;41907;47.848;9.000;2023-06-10T03:07:22;95330.38;;;15.80;86.12
56038;BME280;41907;47.848;9.000;2023-06-10T03:09:48;95341.28;;;15.87;86.26
56038;BME280;41907;47.848;9.000;2023-06-10T03:12:13;95332.88;;;15.89;86.04
56038;BME280;41907;47.848;9.000;2023-06-10T03:14:38;95335.13;;;15.87;85.33
56038;BME280;41907;47.848;9.000;2023-06-10T03:17:04;95343.91;;;15.84;85.21
56038;BME280;41907;47.848;9.000;2023-06-10T03:19:29;95338.53;;;15.84;86.02
56038;BME280;41907;47.848;9.000;2023-06-10T03:22:14;95344.44;;;15.74;86.05
56038;BME280;41907;47.848;9.000;2023-06-10T03:24:39;95345.22;;;15.74;86.66
56038;BME280;41907;47.848;9.000;2023-06-10T03:27:08;95346.97;;;15.67;87.17
56038;BME280;41907;47.848;9.000;2023-06-10T03:29:34;95346.56;;;15.65;87.25
56038;BME280;41907;47.848;9.000;2023-06-10T03:31:59;95348.09;;;15.66;87.24
56038;BME280;41907;47.848;9.000;2023-06-10T03:34:25;95353.56;;;15.69;87.49
56038;BME280;41907;47.848;9.000;2023-06-10T03:36:50;95356.34;;;15.73;87.41
56038;BME280;41907;47.848;9.000;2023-06-10T03:39:15;95354.34;;;15.70;87.10
56038;BME280;41907;47.848;9.000;2023-06-10T03:41:40;95355.81;;;15.67;88.13
56038;BME280;41907;47.848;9.000;2023-06-10T03:44:06;95352.34;;;15.67;87.71
56038;BME280;41907;47.848;9.000;2023-06-10T03:46:31;95356.25;;;15.69;87.61
56038;BME280;41907;47.848;9.000;2023-06-10T03:48:56;95359.72;;;15.70;88.16
56038;BME280;41907;47.848;9.000;2023-06-10T03:51:22;95361.38;;;15.74;88.26
56038;BME280;41907;47.848;9.000;2023-06-10T03:53:47;95362.84;;;15.72;88.21
56038;BME280;41907;47.848;9.000;2023-06-10T03:56:13;95362.69;;;15.65;88.78
56038;BME280;41907;47.848;9.000;2023-06-10T03:58:38;95365.09;;;15.70;88.84
56038;BME280;41907;47.848;9.000;2023-06-10T04:01:03;95360.06;;;15.68;88.72
56038;BME280;41907;47.848;9.000;2023-06-10T04:03:29;95360.59;;;15.74;88.47
56038;BME280;41907;47.848;9.000;2023-06-10T04:05:54;95357.97;;;15.93;87.71
56038;BME280;41907;47.848;9.000;2023-06-10T04:08:19;95367.22;;;15.95;88.20
56038;BME280;41907;47.848;9.000;2023-06-10T04:10:45;95365.09;;;16.05;87.48
56038;BME280;41907;47.848;9.000;2023-06-10T04:13:10;95367.09;;;16.08;87.27
56038;BME280;41907;47.848;9.000;2023-06-10T04:15:36;95362.41;;;16.40;85.79
56038;BME280;41907;47.848;9.000;2023-06-10T04:18:01;95359.16;;;17.07;82.74
56038;BME280;41907;47.848;9.000;2023-06-10T04:20:26;95364.72;;;18.69;74.62
56038;BME280;41907;47.848;9.000;2023-06-10T04:22:52;95364.91;;;20.09;68.18
56038;BME280;41907;47.848;9.000;2023-06-10T04:25:17;95371.88;;;20.82;62.39
56038;BME280;41907;47.848;9.000;2023-06-10T04:27:43;95371.19;;;21.10;60.60
56038;BME280;41907;47.848;9.000;2023-06-10T04:30:08;95371.31;;;21.81;57.68
56038;BME280;41907;47.848;9.000;2023-06-10T04:32:34;95375.19;;;22.26;56.47
56038;BME280;41907;47.848;9.000;2023-06-10T04:34:59;95378.22;;;22.60;54.68
56038;BME280;41907;47.848;9.000;2023-06-10T04:37:25;95375.66;;;23.19;52.55
56038;BME280;41907;47.848;9.000;2023-06-10T04:39:50;95383.50;;;23.76;50.53
56038;BME280;41907;47.848;9.000;2023-06-10T04:42:15;95382.97;;;23.95;49.57
56038;BME280;41907;47.848;9.000;2023-06-10T04:44:40;95387.22;;;24.44;48.40
56038;BME280;41907;47.848;9.000;2023-06-10T04:47:06;95391.69;;;24.99;46.38
56038;BME280;41907;47.848;9.000;2023-06-10T04:49:32;95389.09;;;25.18;45.69
56038;BME280;41907;47.848;9.000;2023-06-10T04:51:58;95385.75;;;25.34;45.54
56038;BME280;41907;47.848;9.000;2023-06-10T04:54:24;95396.19;;;25.70;44.07
56038;BME280;41907;47.848;9.000;2023-06-10T04:56:50;95385.47;;;26.06;43.77
56038;BME280;41907;47.848;9.000;2023-06-10T04:59:15;95390.31;;;26.21;43.10
56038;BME280;41907;47.848;9.000;2023-06-10T05:01:40;95388.91;;;26.37;42.96
56038;BME280;41907;47.848;9.000;2023-06-10T05:04:05;95391.28;;;26.78;41.73
56038;BME280;41907;47.848;9.000;2023-06-10T05:06:31;95388.69;;;27.10;41.12
56038;BME280;41907;47.848;9.000;2023-06-10T05:08:56;95391.34;;;27.33;40.86
56038;BME280;41907;47.848;9.000;2023-06-10T05:11:21;95402.28;;;27.33;40.97
56038;BME280;41907;47.848;9.000;2023-06-10T05:13:47;95398.13;;;27.65;40.27
56038;BME280;41907;47.848;9.000;2023-06-10T05:16:12;95403.06;;;27.70;39.37
56038;BME280;41907;47.848;9.000;2023-06-10T05:18:37;95402.81;;;27.64;39.68
56038;BME280;41907;47.848;9.000;2023-06-10T05:21:02;95408.59;;;27.30;40.20
56038;BME280;41907;47.848;9.000;2023-06-10T05:23:28;95405.41;;;26.53;42.33
56038;BME280;41907;47.848;9.000;2023-06-10T05:25:54;95418.56;;;25.88;43.97
56038;BME280;41907;47.848;9.000;2023-06-10T05:28:19;95413.25;;;25.20;45.70
56038;BME280;41907;47.848;9.000;2023-06-10T05:30:44;95419.69;;;25.03;46.59
56038;BME280;41907;47.848;9.000;2023-06-10T05:33:10;95415.47;;;24.98;46.31
56038;BME280;41907;47.848;9.000;2023-06-10T05:35:35;95416.09;;;23.86;48.66
56038;BME280;41907;47.848;9.000;2023-06-10T05:38:00;95414.84;;;23.35;50.57
56038;BME280;41907;47.848;9.000;2023-06-10T05:40:25;95420.47;;;22.93;51.68
56038;BME280;41907;47.848;9.000;2023-06-10T05:42:50;95420.91;;;22.56;53.55
56038;BME280;41907;47.848;9.000;2023-06-10T05:45:16;95418.59;;;22.58;54.47
56038;BME280;41907;47.848;9.000;2023-06-10T05:47:41;95422.91;;;22.38;54.87
56038;BME280;41907;47.848;9.000;2023-06-10T05:50:06;95417.06;;;22.53;54.76
56038;BME280;41907;47.848;9.000;2023-06-10T05:52:33;95420.50;;;22.68;55.14
56038;BME280;41907;47.848;9.000;2023-06-10T05:54:59;95428.56;;;23.11;53.16
56038;BME280;41907;47.848;9.000;2023-06-10T05:57:24;95430.63;;;23.65;52.47
56038;BME280;41907;47.848;9.000;2023-06-10T05:59:50;95428.75;;;23.52;52.01
56038;BME280;41907;47.848;9.000;2023-06-10T06:02:15;95423.13;;;23.80;51.76
56038;BME280;41907;47.848;9.000;2023-06-10T06:04:40;95436.47;;;23.60;52.16
56038;BME280;41907;47.848;9.000;2023-06-10T06:07:05;95431.22;;;23.91;51.43
56038;BME280;41907;47.848;9.000;2023-06-10T06:09:31;95428.94;;;23.86;51.38
56038;BME280;41907;47.848;9.000;2023-06-10T06:11:56;95429.06;;;23.68;52.10
56038;BME280;41907;47.848;9.000;2023-06-10T06:14:21;95430.72;;;23.48;52.77
56038;BME280;41907;47.848;9.000;2023-06-10T06:16:47;95432.25;;;23.56;52.96
56038;BME280;41907;47.848;9.000;2023-06-10T06:19:12;95425.56;;;23.67;52.78
56038;BME280;41907;47.848;9.000;2023-06-10T06:21:37;95423.19;;;23.73;52.43
56038;BME280;41907;47.848;9.000;2023-06-10T06:24:02;95432.91;;;23.74;52.58
56038;BME280;41907;47.848;9.000;2023-06-10T06:26:28;95427.06;;;23.76;52.76
56038;BME280;41907;47.848;9.000;2023-06-10T06:28:53;95436.66;;;23.94;52.06
56038;BME280;41907;47.848;9.000;2023-06-10T06:31:18;95430.38;;;23.35;53.93
56038;BME280;41907;47.848;9.000;2023-06-10T06:33:43;95424.16;;;23.34;53.98
56038;BME280;41907;47.848;9.000;2023-06-10T06:36:09;95431.97;;;23.25;53.26
56038;BME280;41907;47.848;9.000;2023-06-10T06:38:34;95439.09;;;23.02;54.67
56038;BME280;41907;47.848;9.000;2023-06-10T06:40:59;95428.69;;;22.47;55.74
56038;BME280;41907;47.848;9.000;2023-06-10T06:43:29;95431.41;;;22.57;56.26
56038;BME280;41907;47.848;9.000;2023-06-10T06:45:56;95434.56;;;22.45;56.89
56038;BME280;41907;47.848;9.000;2023-06-10T06:48:21;95429.84;;;22.71;55.82
56038;BME280;41907;47.848;9.000;2023-06-10T06:50:46;95436.81;;;22.72;56.38
56038;BME280;41907;47.848;9.000;2023-06-10T06:53:12;95435.63;;;22.87;56.09
56038;BME280;41907;47.848;9.000;2023-06-10T06:55:37;95430.19;;;22.90;56.89
56038;BME280;41907;47.848;9.000;2023-06-10T06:58:02;95433.31;;;22.89;56.31
56038;BME280;41907;47.848;9.000;2023-06-10T07:00:29;95427.66;;;23.35;55.67
56038;BME280;41907;47.848;9.000;2023-06-10T07:02:54;95428.69;;;23.66;54.44
56038;BME280;41907;47.848;9.000;2023-06-10T07:05:20;95425.56;;;23.67;53.10
56038;BME280;41907;47.848;9.000;2023-06-10T07:07:45;95428.63;;;23.73;54.01
56038;BME280;41907;47.848;9.000;2023-06-10T07:10:10;95426.50;;;23.36;53.76
56038;BME280;41907;47.848;9.000;2023-06-10T07:12:36;95438.63;;;23.17;54.68
56038;BME280;41907;47.848;9.000;2023-06-10T07:15:01;95422.59;;;23.37;54.20
56038;BME280;41907;47.848;9.000;2023-06-10T07:17:27;95419.28;;;23.78;52.87
56038;BME280;41907;47.848;9.000;2023-06-10T07:19:52;95417.41;;;23.64;53.16
56038;BME280;41907;47.848;9.000;2023-06-10T07:22:17;95422.47;;;23.62;53.89
56038;BME280;41907;47.848;9.000;2023-06-10T07:24:42;95427.31;;;23.26;55.93
56038;BME280;41907;47.848;9.000;2023-06-10T07:27:08;95419.78;;;23.58;54.14
56038;BME280;41907;47.848;9.000;2023-06-10T07:29:33;95425.09;;;24.31;54.90
56038;BME280;41907;47.848;9.000;2023-06-10T07:32:00;95425.38;;;24.81;51.93
56038;BME280;41907;47.848;9.000;2023-06-10T07:34:26;95424.50;;;24.92;51.01
56038;BME280;41907;47.848;9.000;2023-06-10T07:36:51;95424.38;;;24.20;53.11
56038;BME280;41907;47.848;9.000;2023-06-10T07:39:16;95424.59;;;24.43;53.46
56038;BME280;41907;47.848;9.000;2023-06-10T07:41:41;95424.25;;;24.75;51.89
56038;BME280;41907;47.848;9.000;2023-06-10T07:44:07;95424.25;;;25.13;51.61
56038;BME280;41907;47.848;9.000;2023-06-10T07:46:32;95428.31;;;25.32;49.06
56038;BME280;41907;47.848;9.000;2023-06-10T07:48:57;95423.22;;;25.64;49.79
56038;BME280;41907;47.848;9.000;2023-06-10T07:51:22;95423.47;;;25.43;49.69
56038;BME280;41907;47.848;9.000;2023-06-10T07:53:48;95419.75;;;25.60;47.01
56038;BME280;41907;47.848;9.000;2023-06-10T07:56:13;95422.13;;;25.28;49.48
56038;BME280;41907;47.848;9.000;2023-06-10T07:58:38;95431.00;;;25.01;49.33
56038;BME280;41907;47.848;9.000;2023-06-10T08:01:03;95427.94;;;25.30;48.83
56038;BME280;41907;47.848;9.000;2023-06-10T08:03:29;95424.13;;;25.81;48.02
56038;BME280;41907;47.848;9.000;2023-06-10T08:05:54;95424.97;;;25.78;48.48
56038;BME280;41907;47.848;9.000;2023-06-10T08:08:19;95429.91;;;25.60;48.43
56038;BME280;41907;47.848;9.000;2023-06-10T08:10:45;95437.19;;;25.70;47.74
56038;BME280;41907;47.848;9.000;2023-06-10T08:13:10;95431.38;;;25.94;46.70
56038;BME280;41907;47.848;9.000;2023-06-10T08:15:35;95439.84;;;26.00;47.47
56038;BME280;41907;47.848;9.000;2023-06-10T08:18:00;95430.19;;;25.04;50.05
56038;BME280;41907;47.848;9.000;2023-06-10T08:20:26;95431.25;;;25.14;49.34
56038;BME280;41907;47.848;9.000;2023-06-10T08:22:51;95424.63;;;25.45;48.46
56038;BME280;41907;47.848;9.000;2023-06-10T08:25:16;95431.59;;;25.77;46.63
56038;BME280;41907;47.848;9.000;2023-06-10T08:27:41;95431.56;;;25.50;47.70
56038;BME280;41907;47.848;9.000;2023-06-10T08:30:07;95426.38;;;25.63;48.49
56038;BME280;41907;47.848;9.000;2023-06-10T08:32:33;95424.03;;;25.88;46.74
56038;BME280;41907;47.848;9.000;2023-06-10T08:34:58;95425.44;;;26.46;46.24
56038;BME280;41907;47.848;9.000;2023-06-10T08:37:24;95429.22;;;26.76;45.52
56038;BME280;41907;47.848;9.000;2023-06-10T08:39:49;95424.69;;;27.09;44.03
56038;BME280;41907;47.848;9.000;2023-06-10T08:44:46;95436.44;;;26.43;44.56
56038;BME280;41907;47.848;9.000;2023-06-10T08:47:14;95432.59;;;26.40;45.30
56038;BME280;41907;47.848;9.000;2023-06-10T08:49:43;95434.16;;;26.14;45.71
56038;BME280;41907;47.848;9.000;2023-06-10T08:52:11;95433.69;;;26.66;45.31
56038;BME280;41907;47.848;9.000;2023-06-10T08:54:38;95425.75;;;26.95;44.58
56038;BME280;41907;47.848;9.000;2023-06-10T08:57:07;95425.19;;;27.03;43.68
56038;BME280;41907;47.848;9.000;2023-06-10T08:59:32;95429.75;;;27.30;43.87
56038;BME280;41907;47.848;9.000;2023-06-10T09:01:58;95431.00;;;27.45;42.97
56038;BME280;41907;47.848;9.000;2023-06-10T09:04:26;95435.50;;;27.35;42.91
56038;BME280;41907;47.848;9.000;2023-06-10T09:06:52;95426.53;;;26.95;43.26
56038;BME280;41907;47.848;9.000;2023-06-10T09:09:17;95427.44;;;27.09;45.86
56038;BME280;41907;47.848;9.000;2023-06-10T09:11:45;95423.56;;;27.26;42.52
56038;BME280;41907;47.848;9.000;2023-06-10T09:14:10;95425.38;;;27.52;42.27
56038;BME280;41907;47.848;9.000;2023-06-10T09:16:37;95420.47;;;27.80;43.41
56038;BME280;41907;47.848;9.000;2023-06-10T09:19:03;95431.63;;;27.89;42.12
56038;BME280;41907;47.848;9.000;2023-06-10T09:21:33;95431.28;;;27.31;41.79
56038;BME280;41907;47.848;9.000;2023-06-10T09:23:58;95433.59;;;26.26;44.65
56038;BME280;41907;47.848;9.000;2023-06-10T09:26:27;95430.31;;;26.35;43.52
56038;BME280;41907;47.848;9.000;2023-06-10T09:28:52;95421.16;;;26.45;44.30
56038;BME280;41907;47.848;9.000;2023-06-10T09:31:22;95431.47;;;26.81;42.57
56038;BME280;41907;47.848;9.000;2023-06-10T09:33:48;95428.00;;;26.34;43.41
56038;BME280;41907;47.848;9.000;2023-06-10T09:36:21;95430.41;;;26.05;44.66
56038;BME280;41907;47.848;9.000;2023-06-10T09:38:46;95426.66;;;25.07;46.54
56038;BME280;41907;47.848;9.000;2023-06-10T09:41:14;95431.13;;;26.09;45.00
56038;BME280;41907;47.848;9.000;2023-06-10T09:43:41;95430.19;;;26.65;44.31
56038;BME280;41907;47.848;9.000;2023-06-10T09:46:06;95432.84;;;27.12;42.25
56038;BME280;41907;47.848;9.000;2023-06-10T09:48:37;95427.50;;;27.45;41.25
56038;BME280;41907;47.848;9.000;2023-06-10T09:51:08;95429.72;;;27.50;40.13
56038;BME280;41907;47.848;9.000;2023-06-10T09:53:33;95427.16;;;27.23;41.67
56038;BME280;41907;47.848;9.000;2023-06-10T09:55:59;95424.84;;;27.21;40.89
56038;BME280;41907;47.848;9.000;2023-06-10T09:58:33;95420.72;;;27.49;40.06
56038;BME280;41907;47.848;9.000;2023-06-10T10:00:58;95418.31;;;27.71;39.93
56038;BME280;41907;47.848;9.000;2023-06-10T10:03:23;95419.72;;;27.03;41.97
56038;BME280;41907;47.848;9.000;2023-06-10T10:05:49;95418.53;;;26.61;43.03
56038;BME280;41907;47.848;9.000;2023-06-10T10:08:14;95415.53;;;26.33;42.17
56038;BME280;41907;47.848;9.000;2023-06-10T10:10:39;95407.81;;;26.71;41.89
56038;BME280;41907;47.848;9.000;2023-06-10T10:13:04;95417.75;;;27.24;41.85
56038;BME280;41907;47.848;9.000;2023-06-10T10:15:31;95418.91;;;27.62;40.90
56038;BME280;41907;47.848;9.000;2023-06-10T10:20:29;95422.25;;;27.70;39.48
56038;BME280;41907;47.848;9.000;2023-06-10T10:22:56;95412.53;;;28.34;38.73
56038;BME280;41907;47.848;9.000;2023-06-10T10:25:29;95413.72;;;28.49;37.06
56038;BME280;41907;47.848;9.000;2023-06-10T10:27:56;95417.94;;;28.37;38.47
56038;BME280;41907;47.848;9.000;2023-06-10T10:30:22;95412.81;;;28.39;39.05
56038;BME280;41907;47.848;9.000;2023-06-10T10:33:04;95409.88;;;28.46;38.79
56038;BME280;41907;47.848;9.000;2023-06-10T10:35:30;95413.41;;;28.76;39.31
56038;BME280;41907;47.848;9.000;2023-06-10T10:37:57;95419.09;;;28.52;38.28
56038;BME280;41907;47.848;9.000;2023-06-10T10:40:23;95407.00;;;28.66;38.02
56038;BME280;41907;47.848;9.000;2023-06-10T10:42:49;95415.34;;;27.46;40.58
56038;BME280;41907;47.848;9.000;2023-06-10T10:45:15;95412.84;;;27.87;40.75
56038;BME280;41907;47.848;9.000;2023-06-10T10:47:41;95404.38;;;27.82;37.95
56038;BME280;41907;47.848;9.000;2023-06-10T10:50:17;95408.50;;;28.06;38.50
56038;BME280;41907;47.848;9.000;2023-06-10T10:52:56;95402.34;;;28.02;39.09
56038;BME280;41907;47.848;9.000;2023-06-10T10:55:24;95401.63;;;27.82;38.82
56038;BME280;41907;47.848;9.000;2023-06-10T10:58:05;95405.75;;;27.90;37.96
56038;BME280;41907;47.848;9.000;2023-06-10T11:00:31;95399.63;;;27.30;40.36
56038;BME280;41907;47.848;9.000;2023-06-10T11:02:57;95398.09;;;26.89;40.12
56038;BME280;41907;47.848;9.000;2023-06-10T11:05:35;95397.44;;;27.41;40.21
56038;BME280;41907;47.848;9.000;2023-06-10T11:08:01;95393.38;;;27.65;39.61
56038;BME280;41907;47.848;9.000;2023-06-10T11:10:30;95393.59;;;27.91;39.29
56038;BME280;41907;47.848;9.000;2023-06-10T11:12:56;95391.00;;;27.48;38.19
56038;BME280;41907;47.848;9.000;2023-06-10T11:15:23;95385.28;;;27.42;39.33
56038;BME280;41907;47.848;9.000;2023-06-10T11:20:43;95385.03;;;27.36;39.48
56038;BME280;41907;47.848;9.000;2023-06-10T11:23:08;95386.72;;;27.66;39.03
56038;BME280;41907;47.848;9.000;2023-06-10T11:25:40;95386.50;;;28.26;39.09
56038;BME280;41907;47.848;9.000;2023-06-10T11:28:18;95387.41;;;28.35;38.02
56038;BME280;41907;47.848;9.000;2023-06-10T11:30:44;95386.97;;;28.04;36.88
56038;BME280;41907;47.848;9.000;2023-06-10T11:33:09;95379.97;;;27.87;37.47
56038;BME280;41907;47.848;9.000;2023-06-10T11:35:39;95383.03;;;28.05;39.53
56038;BME280;41907;47.848;9.000;2023-06-10T11:38:05;95386.75;;;27.99;38.13
56038;BME280;41907;47.848;9.000;2023-06-10T11:40:30;95389.66;;;28.24;38.94
56038;BME280;41907;47.848;9.000;2023-06-10T11:42:55;95384.78;;;28.61;37.68
56038;BME280;41907;47.848;9.000;2023-06-10T11:45:20;95382.19;;;28.86;37.81
56038;BME280;41907;47.848;9.000;2023-06-10T11:47:56;95384.41;;;28.75;37.38
56038;BME280;41907;47.848;9.000;2023-06-10T11:50:31;95386.91;;;28.69;37.18
56038;BME280;41907;47.848;9.000;2023-06-10T11:52:57;95387.53;;;29.06;36.85
56038;BME280;41907;47.848;9.000;2023-06-10T11:55:23;95392.06;;;29.25;36.21
56038;BME280;41907;47.848;9.000;2023-06-10T11:57:48;95388.78;;;28.43;35.65
56038;BME280;41907;47.848;9.000;2023-06-10T12:00:22;95392.66;;;27.81;36.77
56038;BME280;41907;47.848;9.000;2023-06-10T12:02:54;95386.63;;;27.34;37.85
56038;BME280;41907;47.848;9.000;2023-06-10T12:05:20;95388.75;;;27.26;35.65
56038;BME280;41907;47.848;9.000;2023-06-10T12:07:45;95379.28;;;27.83;35.62
56038;BME280;41907;47.848;9.000;2023-06-10T12:10:10;95376.94;;;28.46;35.61
56038;BME280;41907;47.848;9.000;2023-06-10T12:12:35;95376.56;;;28.77;35.48
56038;BME280;41907;47.848;9.000;2023-06-10T12:15:02;95373.03;;;27.99;37.97
56038;BME280;41907;47.848;9.000;2023-06-10T12:19:55;95377.03;;;27.26;39.08
56038;BME280;41907;47.848;9.000;2023-06-10T12:22:20;95373.94;;;27.24;38.87
56038;BME280;41907;47.848;9.000;2023-06-10T12:24:57;95371.47;;;27.65;39.00
56038;BME280;41907;47.848;9.000;2023-06-10T12:27:24;95372.94;;;27.70;37.39
56038;BME280;41907;47.848;9.000;2023-06-10T12:29:53;95372.09;;;27.73;36.93
56038;BME280;41907;47.848;9.000;2023-06-10T12:32:34;95370.22;;;28.02;39.75
56038;BME280;41907;47.848;9.000;2023-06-10T12:35:03;95365.16;;;28.17;36.44
56038;BME280;41907;47.848;9.000;2023-06-10T12:37:31;95365.91;;;27.85;38.17
56038;BME280;41907;47.848;9.000;2023-06-10T12:40:03;95366.28;;;27.51;37.57
56038;BME280;41907;47.848;9.000;2023-06-10T12:42:29;95370.22;;;27.50;37.14
56038;BME280;41907;47.848;9.000;2023-06-10T12:44:55;95360.44;;;27.85;38.07
56038;BME280;41907;47.848;9.000;2023-06-10T12:47:28;95363.78;;;27.93;37.31
56038;BME280;41907;47.848;9.000;2023-06-10T12:49:53;95366.97;;;27.91;37.11
56038;BME280;41907;47.848;9.000;2023-06-10T12:52:19;95363.50;;;28.03;36.78
56038;BME280;41907;47.848;9.000;2023-06-10T12:54:44;95357.84;;;27.94;37.69
56038;BME280;41907;47.848;9.000;2023-06-10T12:57:09;95358.72;;;27.39;37.83
56038;BME280;41907;47.848;9.000;2023-06-10T12:59:35;95352.22;;;26.97;39.26
56038;BME280;41907;47.848;9.000;2023-06-10T13:02:00;95349.09;;;27.15;39.24
56038;BME280;41907;47.848;9.000;2023-06-10T13:04:26;95343.63;;;27.15;39.70
56038;BME280;41907;47.848;9.000;2023-06-10T13:06:51;95356.84;;;27.36;39.47
56038;BME280;41907;47.848;9.000;2023-06-10T13:09:17;95350.00;;;27.64;38.79